createdAt,value
2022-09-15T00:01:44.822Z,14.89
2022-09-15T00:04:13.612Z,14.87
2022-09-15T00:06:42.350Z,14.89
2022-09-15T00:09:12.542Z,14.87
2022-09-15T00:11:44.223Z,14.84
2022-09-15T00:14:12.879Z,14.91
2022-09-15T00:16:41.615Z,14.88
2022-09-15T00:19:10.397Z,14.81
2022-09-15T00:21:41.540Z,14.89
2022-09-15T00:24:14.324Z,14.85
2022-09-15T00:26:42.996Z,14.82
2022-09-15T00:29:12.297Z,14.97
2022-09-15T00:31:41.083Z,15.00
2022-09-15T00:34:13.590Z,15.05
2022-09-15T00:36:42.391Z,15.01
2022-09-15T00:39:11.156Z,15.09
2022-09-15T00:41:42.244Z,15.19
2022-09-15T00:44:44.184Z,15.07
2022-09-15T00:47:19.500Z,15.23
2022-09-15T00:49:58.430Z,15.25
2022-09-15T00:52:33.629Z,15.09
2022-09-15T00:55:11.386Z,14.98
2022-09-15T00:57:50.799Z,15.04
2022-09-15T01:00:22.061Z,14.42
2022-09-15T01:02:51.707Z,14.98
2022-09-15T01:05:22.061Z,14.93
2022-09-15T01:07:54.889Z,15.16
2022-09-15T01:10:27.938Z,15.10
2022-09-15T01:12:59.101Z,15.04
2022-09-15T01:15:33.857Z,15.35
2022-09-15T01:18:11.903Z,15.13
2022-09-15T01:21:03.045Z,15.27
2022-09-15T01:24:11.267Z,15.21
2022-09-15T01:26:58.551Z,14.95
2022-09-15T01:29:53.054Z,14.85
2022-09-15T01:32:52.931Z,15.01
2022-09-15T01:35:37.075Z,14.87
2022-09-15T01:38:10.778Z,14.94
2022-09-15T01:40:45.943Z,15.01
2022-09-15T01:43:16.960Z,14.93
2022-09-15T01:45:49.373Z,14.94
2022-09-15T01:48:22.628Z,14.93
2022-09-15T01:50:54.492Z,14.95
2022-09-15T01:53:25.232Z,14.89
2022-09-15T01:55:57.590Z,14.97
2022-09-15T01:58:26.397Z,15.01
2022-09-15T02:01:01.919Z,15.02
2022-09-15T02:03:35.193Z,15.06
2022-09-15T02:06:11.306Z,14.96
2022-09-15T02:08:45.601Z,15.14
2022-09-15T02:11:18.086Z,15.15
2022-09-15T02:13:54.211Z,15.17
2022-09-15T02:16:26.642Z,15.09
2022-09-15T02:19:09.770Z,15.06
2022-09-15T02:21:52.362Z,15.06
2022-09-15T02:24:28.656Z,15.07
2022-09-15T02:26:58.746Z,15.11
2022-09-15T02:29:30.000Z,15.10
2022-09-15T02:32:06.387Z,15.08
2022-09-15T02:34:40.959Z,15.12
2022-09-15T02:37:11.539Z,15.07
2022-09-15T02:39:48.874Z,15.05
2022-09-15T02:42:24.631Z,15.07
2022-09-15T02:44:55.651Z,15.09
2022-09-15T02:47:27.944Z,15.10
2022-09-15T02:49:57.291Z,15.03
2022-09-15T02:52:26.238Z,15.07
2022-09-15T02:54:54.876Z,15.00
2022-09-15T02:57:24.125Z,14.87
2022-09-15T03:00:10.044Z,14.92
2022-09-15T03:02:40.234Z,14.83
2022-09-15T03:05:10.252Z,14.91
2022-09-15T03:07:39.202Z,14.91
2022-09-15T03:10:09.755Z,14.94
2022-09-15T03:12:41.312Z,14.92
2022-09-15T03:15:12.017Z,14.91
2022-09-15T03:17:44.743Z,14.88
2022-09-15T03:20:16.120Z,14.88
2022-09-15T03:22:45.968Z,14.90
2022-09-15T03:25:17.285Z,14.94
2022-09-15T03:27:45.972Z,14.99
2022-09-15T03:30:15.557Z,14.98
2022-09-15T03:32:49.104Z,15.01
2022-09-15T03:35:17.846Z,15.11
2022-09-15T03:37:46.892Z,14.61
2022-09-15T03:40:15.658Z,15.06
2022-09-15T03:42:44.323Z,15.03
2022-09-15T03:45:12.949Z,15.02
2022-09-15T03:47:41.637Z,15.02
2022-09-15T03:50:11.858Z,14.97
2022-09-15T03:52:40.504Z,14.96
2022-09-15T03:55:09.953Z,14.94
2022-09-15T03:57:38.800Z,14.95
2022-09-15T04:00:08.917Z,14.94
2022-09-15T04:02:37.565Z,14.85
2022-09-15T04:05:07.150Z,14.80
2022-09-15T04:07:38.005Z,14.84
2022-09-15T04:10:07.928Z,14.76
2022-09-15T04:12:38.927Z,14.76
2022-09-15T04:15:08.193Z,14.77
2022-09-15T04:17:36.828Z,14.79
2022-09-15T04:20:06.045Z,14.80
2022-09-15T04:22:34.828Z,14.89
2022-09-15T04:25:05.435Z,14.82
2022-09-15T04:27:35.932Z,14.77
2022-09-15T04:30:05.257Z,14.76
2022-09-15T04:32:35.651Z,14.67
2022-09-15T04:35:05.450Z,14.79
2022-09-15T04:37:34.327Z,14.81
2022-09-15T04:40:04.632Z,14.80
2022-09-15T04:42:33.376Z,14.71
2022-09-15T04:45:02.157Z,14.71
2022-09-15T04:47:33.152Z,14.77
2022-09-15T04:50:01.837Z,14.75
2022-09-15T04:52:30.489Z,14.72
2022-09-15T04:54:59.265Z,14.74
2022-09-15T04:57:29.321Z,14.69
2022-09-15T04:59:58.076Z,14.69
2022-09-15T05:02:26.771Z,14.72
2022-09-15T05:04:55.460Z,14.82
2022-09-15T05:07:26.739Z,14.80
2022-09-15T05:09:55.561Z,14.78
2022-09-15T05:12:24.202Z,14.81
2022-09-15T05:14:54.226Z,15.11
2022-09-15T05:17:26.600Z,14.96
2022-09-15T05:19:55.445Z,15.32
2022-09-15T05:22:24.091Z,15.02
2022-09-15T05:24:52.871Z,15.10
2022-09-15T05:27:21.825Z,14.87
2022-09-15T05:29:56.936Z,15.12
2022-09-15T05:32:40.005Z,14.91
2022-09-15T05:35:08.775Z,14.89
2022-09-15T05:37:37.422Z,14.95
2022-09-15T05:40:08.744Z,14.88
2022-09-15T05:42:37.489Z,14.78
2022-09-15T05:45:06.919Z,14.78
2022-09-15T05:47:35.549Z,14.81
2022-09-15T05:50:06.136Z,14.71
2022-09-15T05:52:35.901Z,14.69
2022-09-15T05:55:05.345Z,14.73
2022-09-15T05:57:34.255Z,14.68
2022-09-15T06:00:03.483Z,14.68
2022-09-15T06:02:40.615Z,14.66
2022-09-15T06:05:11.520Z,14.68
2022-09-15T06:07:40.432Z,14.18
2022-09-15T06:10:10.435Z,14.52
2022-09-15T06:12:39.118Z,14.73
2022-09-15T06:15:08.364Z,14.70
2022-09-15T06:17:37.120Z,14.72
2022-09-15T06:20:07.465Z,14.80
2022-09-15T06:22:37.577Z,14.84
2022-09-15T06:25:07.611Z,14.83
2022-09-15T06:27:36.432Z,14.89
2022-09-15T06:30:05.428Z,14.96
2022-09-15T06:32:34.106Z,14.94
2022-09-15T06:35:06.496Z,14.94
2022-09-15T06:37:37.111Z,14.83
2022-09-15T06:40:07.717Z,15.00
2022-09-15T06:42:36.474Z,14.91
2022-09-15T06:45:06.015Z,14.97
2022-09-15T06:47:35.513Z,15.29
2022-09-15T06:50:05.154Z,15.40
2022-09-15T06:52:33.851Z,15.60
2022-09-15T06:55:06.125Z,15.87
2022-09-15T06:57:34.705Z,15.50
2022-09-15T07:00:03.969Z,15.25
2022-09-15T07:02:33.000Z,15.20
2022-09-15T07:05:01.892Z,15.20
2022-09-15T07:07:33.162Z,15.15
2022-09-15T07:10:03.546Z,15.18
2022-09-15T07:12:32.530Z,15.16
2022-09-15T07:15:01.250Z,15.10
2022-09-15T07:17:30.231Z,15.15
2022-09-15T07:19:58.874Z,15.27
2022-09-15T07:22:27.531Z,15.24
2022-09-15T07:24:58.350Z,15.35
2022-09-15T07:27:31.668Z,15.26
2022-09-15T07:30:00.326Z,15.34
2022-09-15T07:32:29.046Z,15.41
2022-09-15T07:34:59.862Z,15.40
2022-09-15T07:37:28.736Z,15.36
2022-09-15T07:39:57.392Z,15.47
2022-09-15T07:42:26.331Z,15.47
2022-09-15T07:44:56.354Z,15.48
2022-09-15T07:47:24.965Z,15.57
2022-09-15T07:49:54.064Z,15.65
2022-09-15T07:52:22.741Z,15.67
2022-09-15T07:54:51.399Z,15.63
2022-09-15T07:57:20.091Z,15.66
2022-09-15T07:59:51.772Z,15.79
2022-09-15T08:02:22.773Z,15.97
2022-09-15T08:04:51.996Z,15.67
2022-09-15T08:07:23.022Z,16.15
2022-09-15T08:09:53.987Z,16.00
2022-09-15T08:12:22.651Z,16.08
2022-09-15T08:14:51.308Z,15.93
2022-09-15T08:17:23.691Z,16.00
2022-09-15T08:19:53.173Z,15.90
2022-09-15T08:22:21.818Z,15.90
2022-09-15T08:24:50.667Z,16.22
2022-09-15T08:27:21.491Z,15.70
2022-09-15T08:29:50.145Z,15.44
2022-09-15T08:32:18.979Z,15.40
2022-09-15T08:34:48.993Z,15.82
2022-09-15T08:37:17.964Z,15.40
2022-09-15T08:39:47.233Z,15.47
2022-09-15T08:42:17.528Z,15.21
2022-09-15T08:44:49.894Z,15.94
2022-09-15T08:47:23.948Z,16.08
2022-09-15T08:50:00.492Z,16.07
2022-09-15T08:52:34.700Z,16.10
2022-09-15T08:55:08.165Z,16.02
2022-09-15T08:57:36.890Z,15.93
2022-09-15T09:00:06.401Z,15.83
2022-09-15T09:03:00.011Z,15.91
2022-09-15T09:05:52.063Z,16.39
2022-09-15T09:08:36.746Z,16.34
2022-09-15T09:11:13.372Z,15.86
2022-09-15T09:13:50.469Z,16.40
2022-09-15T09:16:43.617Z,16.49
2022-09-15T09:19:31.916Z,16.34
2022-09-15T09:22:09.680Z,16.31
2022-09-15T09:24:44.386Z,16.46
2022-09-15T09:27:15.308Z,16.70
2022-09-15T09:29:49.629Z,16.83
2022-09-15T09:32:22.112Z,16.61
2022-09-15T09:35:00.016Z,16.98
2022-09-15T09:37:30.425Z,16.84
2022-09-15T09:39:59.411Z,16.83
2022-09-15T09:42:31.404Z,16.86
2022-09-15T09:45:00.486Z,16.97
2022-09-15T09:47:30.706Z,16.96
2022-09-15T09:49:59.900Z,17.04
2022-09-15T09:52:37.811Z,17.06
2022-09-15T09:55:24.264Z,17.14
2022-09-15T09:57:52.890Z,16.93
2022-09-15T10:00:37.548Z,17.26
2022-09-15T10:03:12.786Z,17.39
2022-09-15T10:05:42.056Z,17.67
2022-09-15T10:08:19.539Z,17.29
2022-09-15T10:10:53.175Z,17.82
2022-09-15T10:13:23.051Z,17.77
2022-09-15T10:15:55.739Z,17.71
2022-09-15T10:18:34.159Z,17.97
2022-09-15T10:21:05.676Z,18.19
2022-09-15T10:23:35.904Z,18.19
2022-09-15T10:26:22.930Z,17.97
2022-09-15T10:29:14.642Z,18.21
2022-09-15T10:31:44.213Z,18.43
2022-09-15T10:34:26.865Z,18.48
2022-09-15T10:37:03.814Z,18.41
2022-09-15T10:39:43.993Z,18.35
2022-09-15T10:42:20.204Z,18.39
2022-09-15T10:44:58.026Z,18.58
2022-09-15T10:47:37.542Z,18.88
2022-09-15T10:50:14.299Z,19.03
2022-09-15T10:53:10.691Z,19.53
2022-09-15T10:55:53.666Z,19.38
2022-09-15T10:58:36.013Z,19.44
2022-09-15T11:01:20.505Z,19.75
2022-09-15T11:04:07.909Z,19.81
2022-09-15T11:06:45.730Z,19.95
2022-09-15T11:09:23.332Z,20.14
2022-09-15T11:12:06.646Z,20.35
2022-09-15T11:14:52.921Z,20.45
2022-09-15T11:17:36.535Z,20.56
2022-09-15T11:20:25.326Z,20.51
2022-09-15T11:22:59.573Z,20.39
2022-09-15T11:25:31.359Z,20.02
2022-09-15T11:28:05.597Z,19.84
2022-09-15T11:30:38.845Z,20.10
2022-09-15T11:33:16.252Z,20.03
2022-09-15T11:35:53.763Z,19.96
2022-09-15T11:38:40.675Z,20.40
2022-09-15T11:41:19.148Z,20.54
2022-09-15T11:44:08.825Z,20.45
2022-09-15T11:46:51.723Z,20.55
2022-09-15T11:49:25.074Z,20.35
2022-09-15T11:52:08.200Z,20.66
2022-09-15T11:54:38.949Z,20.74
2022-09-15T11:57:18.054Z,20.70
2022-09-15T11:59:57.838Z,20.76
2022-09-15T12:02:32.890Z,20.57
2022-09-15T12:05:10.240Z,20.72
2022-09-15T12:07:45.742Z,21.03
2022-09-15T12:10:19.019Z,20.97
2022-09-15T12:12:48.990Z,20.92
2022-09-15T12:15:27.177Z,20.87
2022-09-15T12:18:06.553Z,20.42
2022-09-15T12:20:53.876Z,20.18
2022-09-15T12:23:33.971Z,20.15
2022-09-15T12:26:09.153Z,19.87
2022-09-15T12:28:43.255Z,20.09
2022-09-15T12:31:30.483Z,20.27
2022-09-15T12:34:00.920Z,20.19
2022-09-15T12:36:45.767Z,20.02
2022-09-15T12:39:37.976Z,19.86
2022-09-15T12:42:14.250Z,19.81
2022-09-15T12:44:47.726Z,19.47
2022-09-15T12:47:34.753Z,19.12
2022-09-15T12:50:09.545Z,18.98
2022-09-15T12:52:45.870Z,18.77
2022-09-15T12:55:21.100Z,18.80
2022-09-15T12:57:55.595Z,18.73
2022-09-15T13:00:34.776Z,18.57
2022-09-15T13:03:06.130Z,18.76
2022-09-15T13:06:08.161Z,18.56
2022-09-15T13:08:54.973Z,18.43
2022-09-15T13:11:34.418Z,18.32
2022-09-15T13:14:14.687Z,18.24
2022-09-15T13:16:52.838Z,18.02
2022-09-15T13:19:26.679Z,17.38
2022-09-15T13:22:01.352Z,18.20
2022-09-15T13:24:47.760Z,18.22
2022-09-15T13:27:19.580Z,17.56
2022-09-15T13:29:50.966Z,18.05
2022-09-15T13:32:36.532Z,18.02
2022-09-15T13:35:44.570Z,17.85
2022-09-15T13:38:47.844Z,17.99
2022-09-15T13:42:01.233Z,18.11
2022-09-15T13:45:07.903Z,18.00
2022-09-15T13:47:48.660Z,17.90
2022-09-15T13:50:24.387Z,17.98
2022-09-15T13:53:21.639Z,17.88
2022-09-15T13:55:51.680Z,18.05
2022-09-15T14:01:13.028Z,18.05
2022-09-15T14:03:47.681Z,17.95
2022-09-15T14:06:20.676Z,17.80
2022-09-15T14:08:52.964Z,17.86
2022-09-15T14:11:31.586Z,17.90
2022-09-15T14:14:01.506Z,17.65
2022-09-15T14:16:35.307Z,17.62
2022-09-15T14:19:21.440Z,17.72
2022-09-15T14:21:51.310Z,17.81
2022-09-15T14:24:30.044Z,17.69
2022-09-15T14:27:03.435Z,17.71
2022-09-15T14:29:34.693Z,17.61
2022-09-15T14:32:05.971Z,17.51
2022-09-15T14:34:37.702Z,17.64
2022-09-15T14:37:09.298Z,17.47
2022-09-15T14:39:40.527Z,17.67
2022-09-15T14:42:21.706Z,17.66
2022-09-15T14:47:43.288Z,17.39
2022-09-15T14:50:16.663Z,17.50
2022-09-15T14:52:50.521Z,17.43
2022-09-15T14:55:24.754Z,17.50
2022-09-15T14:57:59.494Z,17.50
2022-09-15T15:00:34.681Z,17.52
2022-09-15T15:03:17.613Z,17.53
2022-09-15T15:05:58.114Z,17.32
2022-09-15T15:08:38.126Z,17.29
2022-09-15T15:11:11.134Z,17.41
2022-09-15T15:13:43.477Z,17.38
2022-09-15T15:16:22.899Z,17.34
2022-09-15T15:18:53.197Z,17.38
2022-09-15T15:21:40.494Z,17.39
2022-09-15T15:24:16.156Z,17.45
2022-09-15T15:26:47.413Z,17.66
2022-09-15T15:29:43.436Z,17.65
2022-09-15T15:32:15.168Z,17.48
2022-09-15T15:34:51.584Z,17.46
2022-09-15T15:37:29.100Z,17.44
2022-09-15T15:39:59.619Z,17.42
2022-09-15T15:42:30.665Z,16.88
2022-09-15T15:45:01.518Z,17.35
2022-09-15T15:47:33.177Z,17.44
2022-09-15T15:50:13.783Z,17.17
2022-09-15T15:52:44.040Z,17.10
2022-09-15T15:55:15.314Z,17.12
2022-09-15T15:57:50.151Z,17.00
2022-09-15T16:00:22.567Z,16.99
2022-09-15T16:02:52.490Z,16.98
2022-09-15T16:05:23.219Z,16.97
2022-09-15T16:07:53.007Z,17.04
2022-09-15T16:10:24.596Z,16.48
2022-09-15T16:12:54.625Z,16.81
2022-09-15T16:15:23.790Z,16.44
2022-09-15T16:17:52.408Z,16.49
2022-09-15T16:20:27.807Z,16.41
2022-09-15T16:22:56.533Z,16.58
2022-09-15T16:25:34.944Z,16.69
2022-09-15T16:28:05.760Z,16.74
2022-09-15T16:30:37.608Z,16.66
2022-09-15T16:33:06.466Z,16.63
2022-09-15T16:35:39.490Z,16.69
2022-09-15T16:38:10.772Z,16.68
2022-09-15T16:40:39.403Z,16.59
2022-09-15T16:43:14.686Z,16.41
2022-09-15T16:45:44.882Z,16.55
2022-09-15T16:48:14.119Z,16.43
2022-09-15T16:51:02.183Z,16.61
2022-09-15T16:53:32.782Z,16.33
2022-09-15T16:56:01.404Z,16.16
2022-09-15T16:58:31.496Z,16.11
2022-09-15T17:01:00.388Z,16.07
2022-09-15T17:03:31.593Z,16.25
2022-09-15T17:06:02.210Z,15.71
2022-09-15T17:08:32.390Z,15.98
2022-09-15T17:11:05.042Z,16.11
2022-09-15T17:13:35.456Z,15.90
2022-09-15T17:16:04.231Z,15.77
2022-09-15T17:18:33.135Z,15.82
2022-09-15T17:21:01.847Z,15.96
2022-09-15T17:23:33.896Z,15.90
2022-09-15T17:26:05.371Z,15.74
2022-09-15T17:28:37.591Z,15.65
2022-09-15T17:31:12.935Z,15.40
2022-09-15T17:33:42.328Z,15.39
2022-09-15T17:36:11.590Z,15.17
2022-09-15T17:38:42.884Z,14.62
2022-09-15T17:41:15.092Z,14.51
2022-09-15T17:43:45.361Z,14.09
2022-09-15T17:46:14.209Z,14.34
2022-09-15T17:48:43.369Z,14.26
2022-09-15T17:51:17.150Z,14.29
2022-09-15T17:53:47.299Z,14.44
2022-09-15T17:56:16.023Z,14.49
2022-09-15T17:58:46.042Z,14.87
2022-09-15T18:01:16.786Z,14.82
2022-09-15T18:03:46.863Z,14.91
2022-09-15T18:06:15.597Z,14.85
2022-09-15T18:08:44.353Z,14.70
2022-09-15T18:11:15.663Z,14.65
2022-09-15T18:13:51.175Z,14.55
2022-09-15T18:16:19.925Z,14.20
2022-09-15T18:18:48.658Z,14.16
2022-09-15T18:21:26.974Z,14.20
2022-09-15T18:23:56.648Z,14.20
2022-09-15T18:26:26.847Z,14.11
2022-09-15T18:28:57.222Z,14.15
2022-09-15T18:31:26.994Z,14.25
2022-09-15T18:33:55.709Z,14.39
2022-09-15T18:36:24.547Z,14.61
2022-09-15T18:38:53.323Z,14.42
2022-09-15T18:41:22.268Z,14.21
2022-09-15T18:43:50.974Z,14.24
2022-09-15T18:46:23.379Z,14.56
2022-09-15T18:48:54.308Z,14.36
2022-09-15T18:51:40.951Z,14.22
2022-09-15T18:54:14.268Z,14.24
2022-09-15T18:56:43.189Z,14.19
2022-09-15T18:59:17.549Z,14.44
2022-09-15T19:01:48.024Z,14.56
2022-09-15T19:04:16.720Z,14.26
2022-09-15T19:06:45.467Z,14.27
2022-09-15T19:09:14.109Z,14.57
2022-09-15T19:11:42.734Z,14.25
2022-09-15T19:14:11.551Z,14.44
2022-09-15T19:16:57.050Z,14.14
2022-09-15T19:19:28.326Z,14.00
2022-09-15T19:21:57.054Z,14.05
2022-09-15T19:24:31.887Z,13.98
2022-09-15T19:27:02.323Z,13.89
2022-09-15T19:29:34.734Z,13.97
2022-09-15T19:32:04.004Z,13.69
2022-09-15T19:34:34.818Z,13.83
2022-09-15T19:37:08.193Z,13.81
2022-09-15T19:39:40.709Z,13.63
2022-09-15T19:42:11.503Z,13.49
2022-09-15T19:44:41.923Z,13.50
2022-09-15T19:47:10.804Z,13.73
2022-09-15T19:49:41.018Z,13.64
2022-09-15T19:52:09.702Z,13.84
2022-09-15T19:54:38.348Z,13.83
2022-09-15T19:57:07.193Z,13.93
2022-09-15T19:59:35.958Z,13.87
2022-09-15T20:02:12.295Z,13.99
2022-09-15T20:04:42.394Z,13.99
2022-09-15T20:07:11.030Z,14.04
2022-09-15T20:09:39.698Z,13.89
2022-09-15T20:12:08.478Z,13.86
2022-09-15T20:14:38.203Z,13.83
2022-09-15T20:17:09.728Z,13.72
2022-09-15T20:19:42.901Z,13.72
2022-09-15T20:22:11.571Z,13.72
2022-09-15T20:24:41.270Z,13.76
2022-09-15T20:27:09.934Z,13.71
2022-09-15T20:29:38.839Z,13.25
2022-09-15T20:32:07.559Z,13.68
2022-09-15T20:34:36.232Z,13.61
2022-09-15T20:37:06.554Z,14.05
2022-09-15T20:39:36.405Z,13.92
2022-09-15T20:42:05.282Z,13.67
2022-09-15T20:44:33.886Z,13.94
2022-09-15T20:47:02.747Z,14.03
2022-09-15T20:49:31.382Z,14.00
2022-09-15T20:51:59.975Z,14.46
2022-09-15T20:54:29.940Z,14.49
2022-09-15T20:57:01.607Z,14.54
2022-09-15T20:59:30.310Z,14.15
2022-09-15T21:01:58.930Z,14.25
2022-09-15T21:04:27.669Z,13.98
2022-09-15T21:06:57.192Z,13.97
2022-09-15T21:09:26.099Z,13.97
2022-09-15T21:11:56.111Z,13.58
2022-09-15T21:14:27.273Z,13.50
2022-09-15T21:16:55.953Z,13.30
2022-09-15T21:19:24.609Z,13.55
2022-09-15T21:21:55.011Z,13.42
2022-09-15T21:24:23.862Z,12.97
2022-09-15T21:27:10.765Z,12.91
2022-09-15T21:29:40.996Z,12.70
2022-09-15T21:32:09.805Z,12.58
2022-09-15T21:34:38.569Z,12.52
2022-09-15T21:37:07.388Z,12.75
2022-09-15T21:39:36.191Z,12.97
2022-09-15T21:42:05.765Z,12.96
2022-09-15T21:44:34.402Z,12.75
2022-09-15T21:47:04.442Z,12.64
2022-09-15T21:49:33.119Z,12.79
2022-09-15T21:52:01.803Z,13.15
2022-09-15T21:54:32.867Z,13.13
2022-09-15T21:57:01.519Z,13.04
2022-09-15T21:59:30.205Z,13.05
2022-09-15T22:01:58.893Z,12.86
2022-09-15T22:04:28.863Z,12.83
2022-09-15T22:06:57.544Z,12.72
2022-09-15T22:09:26.389Z,13.10
2022-09-15T22:11:55.029Z,13.03
2022-09-15T22:14:23.966Z,13.27
2022-09-15T22:16:52.687Z,13.29
2022-09-15T22:19:21.554Z,13.42
2022-09-15T22:21:51.718Z,13.63
2022-09-15T22:24:23.182Z,13.62
2022-09-15T22:26:52.371Z,12.80
2022-09-15T22:29:21.191Z,12.70
2022-09-15T22:31:49.869Z,12.67
2022-09-15T22:34:18.604Z,12.57
2022-09-15T22:36:47.296Z,12.59
2022-09-15T22:39:17.527Z,12.72
2022-09-15T22:41:46.230Z,12.72
2022-09-15T22:44:19.764Z,12.90
2022-09-15T22:46:51.439Z,12.96
2022-09-15T22:49:20.093Z,12.97
2022-09-15T22:51:48.812Z,12.88
2022-09-15T22:54:18.840Z,12.91
2022-09-15T22:56:49.777Z,12.82
2022-09-15T22:59:18.428Z,12.91
2022-09-15T23:01:47.419Z,13.02
2022-09-15T23:04:19.112Z,13.01
2022-09-15T23:06:49.159Z,12.99
2022-09-15T23:09:19.117Z,12.97
2022-09-15T23:11:47.842Z,12.31
2022-09-15T23:14:18.081Z,12.84
2022-09-15T23:16:49.719Z,13.00
2022-09-15T23:19:20.858Z,12.95
2022-09-15T23:21:49.578Z,12.99
2022-09-15T23:24:19.980Z,12.95
2022-09-15T23:26:48.625Z,13.00
2022-09-15T23:29:17.535Z,13.01
2022-09-15T23:31:46.205Z,12.89
2022-09-15T23:34:14.900Z,12.95
2022-09-15T23:36:43.611Z,13.02
2022-09-15T23:39:12.248Z,12.85
2022-09-15T23:41:42.311Z,12.91
2022-09-15T23:44:11.167Z,12.86
2022-09-15T23:46:39.950Z,12.84
2022-09-15T23:49:12.617Z,12.82
2022-09-15T23:51:43.086Z,12.75
2022-09-15T23:54:14.282Z,12.88
2022-09-15T23:56:44.358Z,13.00
2022-09-15T23:59:13.019Z,12.99
